Time;durP1;ratioP1;P1;durP2;ratioP2;P2;SDS_P1;SDS_P2;PMS_P1;PMS_P2;Temp;Humidity;BMP_temperature;BMP_pressure;BME280_temperature;BME280_humidity;BME280_pressure;Samples;Min_cycle;Max_cycle;Signal;HPM_P1;HPM_P2
2021/11/21 00:00:41;;;;;;;19.38;10.63;;;;;;;1.80;100.00;95335.63;5105833;27;20051;-71
2021/11/21 00:03:08;;;;;;;24.73;12.65;;;;;;;1.74;100.00;95335.47;5111184;27;20039;-71
2021/11/21 00:05:40;;;;;;;21.80;11.07;;;;;;;1.93;100.00;95327.41;5093123;27;20096;-71
2021/11/21 00:08:09;;;;;;;20.00;10.80;;;;;;;2.04;100.00;95326.25;5105537;28;20043;-71
2021/11/21 00:10:37;;;;;;;24.33;12.13;;;;;;;2.07;100.00;95324.16;5118114;27;20381;-72
2021/11/21 00:13:05;;;;;;;20.73;11.63;;;;;;;2.26;100.00;95337.56;5109961;27;20058;-71
2021/11/21 00:15:33;;;;;;;24.95;12.60;;;;;;;2.35;100.00;95335.78;5112179;27;20474;-71
2021/11/21 00:18:00;;;;;;;28.88;14.15;;;;;;;2.31;100.00;95329.38;5106752;27;20040;-72
2021/11/21 00:20:28;;;;;;;27.33;13.20;;;;;;;2.18;100.00;95319.59;5090716;28;20126;-71
2021/11/21 00:22:55;;;;;;;25.45;13.10;;;;;;;2.18;100.00;95309.31;5108555;27;20043;-72
2021/11/21 00:25:23;;;;;;;24.42;12.65;;;;;;;2.20;100.00;95308.19;5107116;27;20051;-71
2021/11/21 00:27:50;;;;;;;23.27;11.75;;;;;;;2.26;100.00;95322.94;5103801;27;20048;-71
2021/11/21 00:30:17;;;;;;;20.90;12.52;;;;;;;2.20;100.00;95327.97;5097486;27;20048;-71
2021/11/21 00:32:44;;;;;;;23.48;12.57;;;;;;;1.91;100.00;95334.47;5089156;28;20035;-71
2021/11/21 00:35:11;;;;;;;28.98;12.93;;;;;;;1.97;100.00;95327.88;5104253;28;20043;-71
2021/11/21 00:37:39;;;;;;;24.15;13.82;;;;;;;1.95;100.00;95317.75;5108597;27;20043;-72
2021/11/21 00:40:07;;;;;;;25.50;13.00;;;;;;;1.82;100.00;95341.41;5107905;27;20044;-71
2021/11/21 00:42:36;;;;;;;36.05;17.73;;;;;;;1.86;100.00;95336.72;5110005;27;20051;-72
2021/11/21 00:45:06;;;;;;;33.70;16.00;;;;;;;1.89;100.00;95338.94;5110560;27;20044;-72
2021/11/21 00:47:34;;;;;;;34.35;14.50;;;;;;;1.69;100.00;95311.09;5107540;27;20039;-72
2021/11/21 00:50:03;;;;;;;25.73;13.27;;;;;;;1.77;100.00;95309.47;5103057;28;20039;-71
2021/11/21 00:52:31;;;;;;;22.63;12.73;;;;;;;1.90;100.00;95318.25;5104410;27;20047;-72
2021/11/21 00:55:07;;;;;;;24.88;10.93;;;;;;;1.50;100.00;95311.44;5115528;27;20047;-72
2021/11/21 00:57:34;;;;;;;24.92;11.98;;;;;;;1.44;100.00;95312.06;5114661;27;20044;-72
2021/11/21 01:00:01;;;;;;;25.65;13.13;;;;;;;1.55;100.00;95319.47;5108524;27;20588;-72
2021/11/21 01:02:27;;;;;;;25.98;12.25;;;;;;;1.44;100.00;95296.66;5107134;27;20118;-72
2021/11/21 01:04:54;;;;;;;21.50;11.82;;;;;;;1.41;100.00;95291.88;5105191;27;20039;-72
2021/11/21 01:07:24;;;;;;;27.80;13.02;;;;;;;1.46;100.00;95299.88;5106147;27;20512;-72
2021/11/21 01:09:51;;;;;;;23.20;11.95;;;;;;;1.60;100.00;95308.69;5114072;27;20063;-72
2021/11/21 01:12:17;;;;;;;22.77;11.30;;;;;;;1.57;100.00;95307.25;5104968;27;20047;-72
2021/11/21 01:14:45;;;;;;;19.02;10.77;;;;;;;1.44;100.00;95281.25;5109475;27;20040;-72
2021/11/21 01:17:11;;;;;;;22.23;11.25;;;;;;;1.51;100.00;95287.34;5109624;27;20508;-71
2021/11/21 01:19:43;;;;;;;20.60;10.30;;;;;;;1.49;100.00;95284.16;5107305;27;20826;-72
2021/11/21 01:22:10;;;;;;;17.80;8.77;;;;;;;1.53;100.00;95295.69;5111329;27;20031;-72
2021/11/21 01:24:37;;;;;;;16.67;8.70;;;;;;;1.45;100.00;95288.00;5105772;27;20036;-71
2021/11/21 01:27:05;;;;;;;18.95;9.18;;;;;;;1.42;100.00;95280.63;5092380;28;20047;-72
2021/11/21 01:29:31;;;;;;;13.23;7.68;;;;;;;1.46;100.00;95284.47;5108610;27;20054;-72
2021/11/21 01:31:58;;;;;;;16.27;8.25;;;;;;;1.42;100.00;95284.00;5084826;28;20059;-72
2021/11/21 01:34:26;;;;;;;18.98;8.43;;;;;;;1.37;100.00;95280.31;5104544;27;20063;-72
2021/11/21 01:36:53;;;;;;;14.70;8.70;;;;;;;1.27;100.00;95265.88;5113341;27;20047;-72
2021/11/21 01:39:20;;;;;;;13.80;8.23;;;;;;;1.27;100.00;95271.03;5111929;27;20036;-72
2021/11/21 01:41:47;;;;;;;17.65;8.15;;;;;;;1.31;100.00;95272.31;5107667;27;20097;-72
2021/11/21 01:44:16;;;;;;;14.30;8.07;;;;;;;1.28;100.00;95267.50;5109978;27;20044;-72
2021/11/21 01:46:43;;;;;;;18.65;9.32;;;;;;;1.21;100.00;95255.50;5106477;27;20088;-72
2021/11/21 01:49:11;;;;;;;16.95;8.75;;;;;;;1.30;100.00;95265.56;5104282;27;20497;-72
2021/11/21 01:51:38;;;;;;;15.27;8.23;;;;;;;1.23;100.00;95253.56;5103359;28;20524;-72
2021/11/21 01:54:06;;;;;;;19.27;8.65;;;;;;;1.29;100.00;95266.53;5110615;27;20035;-72
2021/11/21 01:56:33;;;;;;;17.63;9.55;;;;;;;1.25;100.00;95249.84;5107642;27;20035;-71
2021/11/21 01:59:00;;;;;;;15.75;8.02;;;;;;;1.29;100.00;95268.28;5104980;27;20035;-72
2021/11/21 02:01:27;;;;;;;16.48;7.82;;;;;;;1.26;100.00;95268.63;5105611;28;20043;-72
2021/11/21 02:03:54;;;;;;;16.65;8.07;;;;;;;1.13;100.00;95249.41;5116383;27;20445;-72
2021/11/21 02:06:21;;;;;;;17.33;7.47;;;;;;;1.18;100.00;95251.47;5107909;28;20093;-72
2021/11/21 02:08:52;;;;;;;16.20;8.23;;;;;;;1.17;100.00;95243.94;5113679;28;20120;-71
2021/11/21 02:11:20;;;;;;;20.00;9.00;;;;;;;1.11;100.00;95242.81;5104164;28;20059;-72
2021/11/21 02:13:49;;;;;;;13.23;7.32;;;;;;;1.13;100.00;95244.28;5106600;28;20557;-72
2021/11/21 02:16:18;;;;;;;18.00;8.95;;;;;;;1.11;100.00;95240.25;5110114;28;20046;-72
2021/11/21 02:18:46;;;;;;;17.35;9.07;;;;;;;0.99;100.00;95215.88;5110687;28;20062;-72
2021/11/21 02:21:17;;;;;;;23.17;9.43;;;;;;;0.93;100.00;95223.25;5110035;28;20040;-72
2021/11/21 02:23:46;;;;;;;20.83;10.50;;;;;;;1.08;100.00;95245.69;5113409;28;20051;-72
2021/11/21 02:26:15;;;;;;;16.52;8.88;;;;;;;1.03;100.00;95237.72;5094883;28;20046;-72
2021/11/21 02:28:42;;;;;;;17.30;9.20;;;;;;;1.04;100.00;95247.00;5099228;28;20043;-72
2021/11/21 02:31:11;;;;;;;18.27;8.77;;;;;;;1.00;100.00;95238.03;5110045;28;20039;-72
2021/11/21 02:33:40;;;;;;;15.57;8.43;;;;;;;1.00;100.00;95240.59;5090144;28;20031;-72
2021/11/21 02:36:08;;;;;;;23.85;8.88;;;;;;;0.89;100.00;95226.31;5107479;28;20446;-72
2021/11/21 02:38:36;;;;;;;18.35;8.95;;;;;;;0.94;100.00;95235.13;5108247;28;20404;-72
2021/11/21 02:41:06;;;;;;;20.25;9.73;;;;;;;0.89;100.00;95234.81;5108137;28;20036;-72
2021/11/21 02:43:34;;;;;;;16.67;9.43;;;;;;;0.88;100.00;95230.66;5106768;28;20054;-72
2021/11/21 02:46:02;;;;;;;20.00;11.25;;;;;;;0.78;100.00;95217.19;5085763;28;20050;-72
2021/11/21 02:48:31;;;;;;;18.02;10.48;;;;;;;0.81;100.00;95229.69;5069636;28;20050;-72
2021/11/21 02:51:00;;;;;;;14.43;8.45;;;;;;;0.84;100.00;95218.31;5109279;28;20034;-72
2021/11/21 02:53:30;;;;;;;22.13;9.35;;;;;;;0.74;100.00;95215.91;5110885;28;20424;-72
2021/11/21 02:56:01;;;;;;;18.17;9.25;;;;;;;0.74;100.00;95223.59;5110209;27;20040;-72
2021/11/21 02:58:31;;;;;;;20.17;10.45;;;;;;;0.76;100.00;95226.81;5113318;27;20047;-72
2021/11/21 03:01:10;;;;;;;25.80;11.27;;;;;;;0.64;100.00;95233.22;5111915;27;20423;-72
2021/11/21 03:03:37;;;;;;;85.95;24.55;;;;;;;0.66;100.00;95226.16;5108452;27;20074;-72
2021/11/21 03:06:04;;;;;;;63.83;22.48;;;;;;;0.64;100.00;95217.81;5109917;27;20043;-72
2021/11/21 03:08:31;;;;;;;62.15;22.42;;;;;;;0.61;100.00;95223.25;5111946;27;20039;-72
2021/11/21 03:11:10;;;;;;;34.80;16.00;;;;;;;0.59;100.00;95220.06;5098599;27;20031;-73
2021/11/21 03:13:36;;;;;;;20.63;10.00;;;;;;;0.45;100.00;95214.63;5096897;27;20043;-74
2021/11/21 03:16:03;;;;;;;26.88;12.57;;;;;;;0.34;100.00;95222.59;5110607;27;20043;-73
2021/11/21 03:18:30;;;;;;;18.83;9.80;;;;;;;0.34;100.00;95228.53;5113052;27;20048;-73
2021/11/21 03:20:57;;;;;;;20.80;10.77;;;;;;;0.20;100.00;95211.22;5109549;27;20039;-73
2021/11/21 03:23:24;;;;;;;33.15;14.75;;;;;;;0.19;100.00;95220.63;5108089;27;20050;-72
2021/11/21 03:25:51;;;;;;;55.80;21.13;;;;;;;0.10;100.00;95206.22;5111011;27;20520;-73
2021/11/21 03:28:18;;;;;;;47.47;17.67;;;;;;;0.11;100.00;95210.38;5107249;27;20051;-73
2021/11/21 03:30:45;;;;;;;32.28;13.68;;;;;;;0.17;100.00;95227.69;5115195;27;20824;-73
2021/11/21 03:33:12;;;;;;;24.15;13.38;;;;;;;0.19;100.00;95224.97;5105578;27;20040;-74
2021/11/21 03:35:39;;;;;;;24.52;12.35;;;;;;;0.04;100.00;95211.97;5114524;27;20050;-71
2021/11/21 03:38:06;;;;;;;22.80;10.30;;;;;;;0.10;100.00;95221.56;5112846;27;20553;-71
2021/11/21 03:40:33;;;;;;;17.55;9.90;;;;;;;0.03;100.00;95224.94;5111139;27;20552;-72
2021/11/21 03:43:02;;;;;;;22.05;8.60;;;;;;;-0.01;100.00;95221.88;5110539;27;20076;-71
2021/11/21 03:45:29;;;;;;;18.98;7.05;;;;;;;-0.11;100.00;95198.16;5112002;27;20077;-71
2021/11/21 03:47:56;;;;;;;14.93;7.55;;;;;;;-0.10;100.00;95213.34;5114235;27;20047;-72
2021/11/21 03:50:23;;;;;;;15.75;8.25;;;;;;;-0.15;100.00;95209.66;5113890;27;20031;-72
2021/11/21 03:52:50;;;;;;;17.30;8.15;;;;;;;-0.22;100.00;95217.97;5107257;27;20048;-71
2021/11/21 03:55:19;;;;;;;16.15;7.28;;;;;;;-0.25;100.00;95218.28;5114875;27;20043;-72
2021/11/21 03:57:48;;;;;;;13.63;7.65;;;;;;;-0.25;100.00;95220.03;5114563;27;20069;-72
2021/11/21 04:00:18;;;;;;;17.40;8.57;;;;;;;-0.27;100.00;95209.94;5114437;27;20438;-72
2021/11/21 04:02:47;;;;;;;14.27;6.85;;;;;;;-0.29;100.00;95214.44;5112551;27;20446;-72
2021/11/21 04:05:16;;;;;;;15.50;6.90;;;;;;;-0.28;100.00;95213.47;5108613;27;20427;-72
2021/11/21 04:07:43;;;;;;;13.38;6.63;;;;;;;-0.31;100.00;95203.50;5119975;27;20039;-72
2021/11/21 04:10:11;;;;;;;14.68;6.53;;;;;;;-0.24;100.00;95204.50;5097185;27;20042;-72
2021/11/21 04:12:39;;;;;;;13.43;7.28;;;;;;;-0.17;100.00;95211.59;5095859;28;20046;-72
2021/11/21 04:15:06;;;;;;;15.43;7.03;;;;;;;-0.10;100.00;95215.13;5098497;27;20062;-73
2021/11/21 04:17:35;;;;;;;12.02;6.90;;;;;;;-0.07;100.00;95214.81;5107030;27;20036;-73
2021/11/21 04:20:03;;;;;;;25.23;10.35;;;;;;;0.05;100.00;95223.81;5092432;28;20038;-72
2021/11/21 04:22:30;;;;;;;62.15;17.20;;;;;;;0.06;100.00;95225.41;5111998;27;20117;-72
2021/11/21 04:24:57;;;;;;;45.28;13.65;;;;;;;0.11;100.00;95223.19;5117431;27;20046;-72
2021/11/21 04:27:27;;;;;;;66.45;21.02;;;;;;;0.12;100.00;95223.97;5110734;27;20056;-72
2021/11/21 04:29:55;;;;;;;75.72;27.00;;;;;;;0.14;100.00;95222.06;5119364;27;20046;-73
2021/11/21 04:32:23;;;;;;;89.35;26.17;;;;;;;0.15;100.00;95226.25;5113552;27;20043;-72
2021/11/21 04:34:50;;;;;;;22.73;11.20;;;;;;;0.12;100.00;95224.78;5113284;27;20055;-73
2021/11/21 04:37:18;;;;;;;19.58;9.98;;;;;;;0.00;100.00;95226.06;5111274;27;20078;-72
2021/11/21 04:39:45;;;;;;;22.98;10.20;;;;;;;0.01;100.00;95219.94;5110310;27;20048;-72
2021/11/21 04:42:12;;;;;;;20.23;8.80;;;;;;;0.00;100.00;95226.06;5106924;27;21959;-72
2021/11/21 04:44:39;;;;;;;22.60;11.63;;;;;;;-0.03;100.00;95221.22;5105788;27;20039;-72
2021/11/21 04:47:06;;;;;;;20.80;11.02;;;;;;;-0.02;100.00;95213.41;5094547;27;20051;-73
2021/11/21 04:49:33;;;;;;;20.42;11.93;;;;;;;0.13;100.00;95221.28;5091101;27;20108;-72
2021/11/21 04:52:00;;;;;;;24.75;11.15;;;;;;;0.23;100.00;95225.44;5107103;27;20676;-72
2021/11/21 04:54:27;;;;;;;38.08;14.38;;;;;;;0.37;100.00;95227.41;5109258;27;20465;-72
2021/11/21 04:56:55;;;;;;;25.90;12.40;;;;;;;0.12;100.00;95214.53;5105862;27;20116;-72
2021/11/21 04:59:22;;;;;;;31.45;14.10;;;;;;;0.23;100.00;95225.44;5097781;27;23351;-72
2021/11/21 05:01:49;;;;;;;38.17;18.58;;;;;;;0.36;100.00;95224.03;5092050;27;20039;-72
2021/11/21 05:04:16;;;;;;;52.80;24.45;;;;;;;0.49;100.00;95226.16;5111025;27;20067;-72
2021/11/21 05:06:43;;;;;;;39.20;19.00;;;;;;;0.45;100.00;95219.75;5115314;27;20048;-73
2021/11/21 05:09:10;;;;;;;76.50;26.45;;;;;;;0.52;100.00;95220.72;5117077;27;20519;-72
2021/11/21 05:11:37;;;;;;;42.33;20.15;;;;;;;0.54;100.00;95218.78;5113221;27;20039;-72
2021/11/21 05:14:05;;;;;;;35.40;16.35;;;;;;;0.51;100.00;95224.22;5114223;27;20063;-72
2021/11/21 05:16:33;;;;;;;44.90;21.98;;;;;;;0.66;100.00;95226.16;5108037;27;20046;-72
2021/11/21 05:19:02;;;;;;;51.67;22.10;;;;;;;0.80;100.00;95222.94;5111178;27;20059;-73
2021/11/21 05:21:29;;;;;;;49.17;23.05;;;;;;;0.77;100.00;95228.41;5107644;27;20039;-72
2021/11/21 05:23:55;;;;;;;46.53;20.85;;;;;;;0.78;100.00;95222.31;5113014;27;20043;-73
2021/11/21 05:26:24;;;;;;;49.92;20.05;;;;;;;0.86;100.00;95227.44;5113881;27;20107;-73
2021/11/21 05:28:51;;;;;;;39.85;20.42;;;;;;;0.95;100.00;95226.50;5108272;27;20077;-73
2021/11/21 05:31:18;;;;;;;47.17;20.17;;;;;;;0.91;100.00;95225.19;5091456;27;20048;-71
2021/11/21 05:33:45;;;;;;;36.72;18.27;;;;;;;0.81;100.00;95209.19;5121573;27;20031;-71
2021/11/21 05:36:12;;;;;;;45.75;17.70;;;;;;;1.04;100.00;95229.03;5108505;27;20492;-71
2021/11/21 05:38:39;;;;;;;34.90;15.50;;;;;;;1.09;100.00;95216.53;5111660;27;20473;-71
2021/11/21 05:41:06;;;;;;;29.75;14.38;;;;;;;1.24;100.00;95214.91;5106347;27;20426;-71
2021/11/21 05:43:33;;;;;;;29.15;13.68;;;;;;;1.29;100.00;95217.75;5109462;27;20038;-72
2021/11/21 05:46:00;;;;;;;37.38;15.93;;;;;;;1.23;100.00;95208.16;5114715;27;20047;-72
2021/11/21 05:48:27;;;;;;;44.67;19.35;;;;;;;1.33;100.00;95208.78;5106476;27;20043;-73
2021/11/21 05:50:54;;;;;;;37.95;16.48;;;;;;;1.43;100.00;95212.94;5107080;27;20043;-72
2021/11/21 05:53:21;;;;;;;33.38;16.80;;;;;;;1.45;100.00;95205.88;5111593;27;20050;-73
2021/11/21 05:55:53;;;;;;;33.28;14.02;;;;;;;1.31;100.00;95205.59;5095260;27;20050;-73
2021/11/21 05:58:23;;;;;;;30.20;12.57;;;;;;;1.41;100.00;95214.88;5106144;27;20055;-73
2021/11/21 06:00:50;;;;;;;25.20;11.95;;;;;;;1.37;100.00;95213.59;5111613;27;20524;-73
2021/11/21 06:03:17;;;;;;;23.05;12.48;;;;;;;1.50;100.00;95224.16;5106845;27;20118;-73
2021/11/21 06:05:45;;;;;;;24.92;12.57;;;;;;;1.56;100.00;95231.19;5115247;28;20039;-73
2021/11/21 06:08:12;;;;;;;26.40;12.35;;;;;;;1.57;100.00;95227.66;5105404;28;20036;-72
2021/11/21 06:10:40;;;;;;;30.80;16.73;;;;;;;1.40;100.00;95220.97;5098483;28;20046;-72
2021/11/21 06:13:08;;;;;;;23.42;11.68;;;;;;;1.33;100.00;95234.47;5100106;28;20506;-72
2021/11/21 06:15:36;;;;;;;28.15;15.88;;;;;;;1.50;100.00;95234.41;5100281;28;20131;-71
2021/11/21 06:18:03;;;;;;;37.53;19.52;;;;;;;1.63;100.00;95223.63;5110262;28;20040;-72
2021/11/21 06:20:31;;;;;;;36.10;17.70;;;;;;;1.77;100.00;95233.22;5105815;28;20067;-72
2021/11/21 06:22:58;;;;;;;23.10;13.55;;;;;;;1.83;100.00;95231.75;5089839;28;20079;-71
2021/11/21 06:25:25;;;;;;;28.20;13.85;;;;;;;1.78;100.00;95231.44;5104334;28;20801;-72
2021/11/21 06:27:52;;;;;;;23.23;11.60;;;;;;;1.62;100.00;95212.56;5093662;28;20062;-72
2021/11/21 06:30:19;;;;;;;24.75;13.07;;;;;;;1.68;100.00;95217.03;5112347;27;20052;-72
2021/11/21 06:32:46;;;;;;;26.50;13.40;;;;;;;1.83;100.00;95213.75;5096236;27;20046;-72
2021/11/21 06:35:12;;;;;;;29.30;14.30;;;;;;;1.82;100.00;95222.44;5120798;27;20424;-72
2021/11/21 06:37:42;;;;;;;30.67;12.38;;;;;;;1.82;100.00;95227.56;5117369;27;20040;-72
2021/11/21 06:40:10;;;;;;;31.90;14.27;;;;;;;1.92;100.00;95212.75;5116519;27;20055;-73
2021/11/21 06:42:37;;;;;;;33.25;16.15;;;;;;;2.17;100.00;95210.06;5120907;27;20393;-72
2021/11/21 06:45:05;;;;;;;34.10;17.48;;;;;;;2.24;100.00;95205.88;5116021;27;20046;-72
2021/11/21 06:47:32;;;;;;;28.70;16.10;;;;;;;2.33;100.00;95204.84;5117263;27;20039;-72
2021/11/21 06:50:01;;;;;;;40.47;18.38;;;;;;;2.42;100.00;95205.59;5111939;27;20040;-73
2021/11/21 06:52:31;;;;;;;52.65;22.98;;;;;;;2.50;100.00;95200.38;5115147;27;20416;-73
2021/11/21 06:54:58;;;;;;;63.65;32.75;;;;;;;2.63;100.00;95194.69;5120121;27;20031;-73
2021/11/21 06:57:25;;;;;;;57.05;26.95;;;;;;;2.68;100.00;95197.53;5116736;27;20046;-72
2021/11/21 06:59:52;;;;;;;55.03;26.40;;;;;;;2.74;100.00;95191.69;5119636;27;20040;-73
2021/11/21 07:02:19;;;;;;;60.55;27.65;;;;;;;2.85;100.00;95198.22;5113225;27;20395;-73
2021/11/21 07:04:48;;;;;;;59.50;30.90;;;;;;;2.81;100.00;95187.47;5098703;27;20043;-73
2021/11/21 07:07:18;;;;;;;36.95;19.92;;;;;;;2.89;100.00;95193.50;5113255;27;20552;-72
2021/11/21 07:09:45;;;;;;;30.65;16.63;;;;;;;3.12;100.00;95199.41;5092432;27;20505;-74
2021/11/21 07:12:12;;;;;;;27.33;13.93;;;;;;;3.14;100.00;95187.16;5118431;27;20054;-74
2021/11/21 07:14:59;;;;;;;22.40;11.32;;;;;;;3.00;100.00;95190.50;5117317;27;20059;-73
2021/11/21 07:17:26;;;;;;;24.98;12.45;;;;;;;3.16;100.00;95190.34;5105890;27;20047;-73
2021/11/21 07:19:53;;;;;;;21.10;10.90;;;;;;;3.32;100.00;95179.09;5111306;27;22281;-73
2021/11/21 07:22:20;;;;;;;19.45;10.00;;;;;;;3.36;100.00;95158.94;5094979;27;20493;-73
2021/11/21 07:24:47;;;;;;;25.20;11.77;;;;;;;3.64;100.00;95177.94;5110968;27;20043;-73
2021/11/21 07:27:14;;;;;;;27.83;15.45;;;;;;;3.82;100.00;95179.38;5108960;27;20047;-74
2021/11/21 07:29:41;;;;;;;19.08;11.10;;;;;;;3.82;100.00;95180.16;5112713;27;20552;-73
2021/11/21 07:32:08;;;;;;;21.77;9.70;;;;;;;3.97;100.00;95182.69;5110417;27;20054;-73
2021/11/21 07:34:35;;;;;;;18.00;9.40;;;;;;;4.04;100.00;95176.84;5111576;27;20052;-74
2021/11/21 07:37:02;;;;;;;19.45;10.68;;;;;;;4.26;100.00;95186.19;5109387;27;20047;-73
2021/11/21 07:39:29;;;;;;;18.15;10.60;;;;;;;4.27;100.00;95161.19;5100187;27;20168;-73
2021/11/21 07:41:55;;;;;;;19.85;10.80;;;;;;;4.43;100.00;95170.47;5080359;28;20723;-73
2021/11/21 07:44:24;;;;;;;18.00;11.35;;;;;;;4.46;100.00;95175.28;5103341;27;20032;-73
2021/11/21 07:46:51;;;;;;;22.05;11.98;;;;;;;4.48;100.00;95173.31;5102514;27;20036;-73
2021/11/21 07:49:18;;;;;;;56.83;20.08;;;;;;;4.59;100.00;95175.38;5087002;27;20051;-73
2021/11/21 07:51:47;;;;;;;40.92;18.08;;;;;;;4.76;100.00;95169.00;5104597;27;20044;-73
2021/11/21 07:54:14;;;;;;;16.48;9.45;;;;;;;4.79;100.00;95181.53;5088276;28;20047;-73
2021/11/21 07:56:41;;;;;;;138.80;46.90;;;;;;;4.83;100.00;95181.16;5101772;27;20054;-72
2021/11/21 07:59:10;;;;;;;105.60;38.05;;;;;;;4.83;100.00;95181.16;5104717;27;20097;-73
2021/11/21 08:01:37;;;;;;;67.28;30.27;;;;;;;4.88;100.00;95183.97;5098404;27;20056;-72
2021/11/21 08:04:04;;;;;;;25.70;12.95;;;;;;;4.98;100.00;95172.34;5104140;27;20051;-72
2021/11/21 08:06:31;;;;;;;26.85;12.80;;;;;;;5.08;100.00;95179.78;5109842;27;20060;-73
2021/11/21 08:08:58;;;;;;;21.65;11.80;;;;;;;5.13;100.00;95181.78;5106174;27;20043;-73
2021/11/21 08:11:25;;;;;;;23.27;9.57;;;;;;;5.04;100.00;95157.91;5101256;27;20048;-73
2021/11/21 08:13:51;;;;;;;17.02;10.43;;;;;;;5.19;100.00;95169.91;5105958;27;20054;-73
2021/11/21 08:16:18;;;;;;;24.35;11.45;;;;;;;5.31;100.00;95171.78;5103935;27;20051;-73
2021/11/21 08:18:45;;;;;;;22.02;11.68;;;;;;;5.51;100.00;95169.31;5106255;27;20046;-73
2021/11/21 08:21:12;;;;;;;21.08;12.05;;;;;;;5.63;100.00;95161.03;5109136;27;20051;-73
2021/11/21 08:23:41;;;;;;;27.00;11.55;;;;;;;5.78;100.00;95163.47;5106418;27;20840;-74
2021/11/21 08:26:08;;;;;;;49.03;17.13;;;;;;;5.83;100.00;95155.94;5086377;27;20050;-74
2021/11/21 08:28:38;;;;;;;40.05;15.40;;;;;;;5.91;100.00;95156.56;5101187;27;20052;-74
2021/11/21 08:31:08;;;;;;;29.02;16.35;;;;;;;5.99;100.00;95149.66;5087512;28;20113;-74
2021/11/21 08:33:35;;;;;;;26.33;11.65;;;;;;;6.15;99.37;95144.13;5100048;27;20504;-74
2021/11/21 08:36:03;;;;;;;25.13;13.05;;;;;;;6.27;98.66;95158.09;5099128;27;20059;-74
2021/11/21 08:38:29;;;;;;;26.88;15.15;;;;;;;6.23;98.94;95141.38;5081993;27;20039;-74
2021/11/21 08:40:56;;;;;;;23.95;12.98;;;;;;;6.53;98.52;95151.38;5096336;27;20109;-75
2021/11/21 08:43:23;;;;;;;23.77;13.90;;;;;;;6.61;99.06;95156.38;5100031;27;20568;-72
2021/11/21 08:45:50;;;;;;;38.53;18.60;;;;;;;6.73;98.31;95150.59;5107460;27;20424;-72
2021/11/21 08:48:17;;;;;;;40.63;17.48;;;;;;;6.84;96.57;95147.41;5103770;27;20043;-72
2021/11/21 08:50:44;;;;;;;31.55;15.02;;;;;;;6.73;95.54;95140.25;5087794;27;20101;-72
2021/11/21 08:53:11;;;;;;;26.27;14.57;;;;;;;6.59;96.23;95140.25;5105839;27;20050;-72
2021/11/21 08:55:38;;;;;;;34.22;16.60;;;;;;;6.80;96.83;95143.63;5106434;27;20039;-73
2021/11/21 08:58:06;;;;;;;36.58;16.77;;;;;;;6.80;95.19;95125.50;5103662;27;20497;-73
2021/11/21 09:00:33;;;;;;;27.08;13.27;;;;;;;6.78;94.48;95117.16;5099769;27;20051;-72
2021/11/21 09:03:00;;;;;;;27.48;11.77;;;;;;;6.90;95.52;95110.38;5103062;27;20036;-71
2021/11/21 09:05:27;;;;;;;26.45;12.20;;;;;;;6.91;93.04;95096.41;5101715;27;20044;-75
2021/11/21 09:08:12;;;;;;;24.03;11.27;;;;;;;7.12;91.91;95117.91;5106803;27;20047;-74
2021/11/21 09:10:40;;;;;;;24.20;13.93;;;;;;;7.27;91.56;95110.69;5108178;27;20039;-74
2021/11/21 09:13:07;;;;;;;20.65;12.20;;;;;;;7.62;90.23;95118.19;5107919;27;20049;-73
2021/11/21 09:15:33;;;;;;;35.83;12.95;;;;;;;7.76;89.38;95119.72;5107106;27;20028;-74
2021/11/21 09:18:00;;;;;;;24.48;11.98;;;;;;;7.93;87.55;95119.25;5093569;27;20040;-74
2021/11/21 09:20:27;;;;;;;25.77;12.68;;;;;;;8.07;87.48;95119.97;5109937;27;20048;-74
2021/11/21 09:22:54;;;;;;;22.05;12.27;;;;;;;8.03;85.92;95088.47;5105133;27;20043;-74
2021/11/21 09:25:21;;;;;;;25.02;14.40;;;;;;;8.32;86.00;95075.91;5103832;27;20047;-74
2021/11/21 09:27:48;;;;;;;21.30;12.45;;;;;;;8.60;83.48;95099.69;5108283;27;20051;-74
2021/11/21 09:30:15;;;;;;;26.92;13.60;;;;;;;8.89;83.08;95092.28;5104263;27;20747;-73
2021/11/21 09:32:43;;;;;;;20.20;11.75;;;;;;;8.93;82.12;95083.06;5104981;27;20044;-73
2021/11/21 09:35:10;;;;;;;20.55;11.05;;;;;;;9.04;81.79;95085.94;5089644;28;20040;-73
2021/11/21 09:37:38;;;;;;;22.83;13.10;;;;;;;9.29;81.24;95071.13;5106086;27;20043;-73
2021/11/21 09:40:06;;;;;;;23.38;12.32;;;;;;;9.48;80.42;95058.09;5106267;27;20044;-74
2021/11/21 09:42:34;;;;;;;18.98;10.45;;;;;;;9.67;78.76;95066.66;5100600;28;20035;-73
2021/11/21 09:45:03;;;;;;;19.58;12.80;;;;;;;9.64;78.02;95067.91;5088545;28;20040;-74
2021/11/21 09:47:29;;;;;;;19.10;11.15;;;;;;;9.44;78.62;95054.38;5108091;27;20088;-74
2021/11/21 09:50:03;;;;;;;17.90;11.95;;;;;;;9.89;78.61;95059.22;5109347;27;20042;-71
2021/11/21 09:52:30;;;;;;;21.10;11.57;;;;;;;10.12;76.52;95059.28;5107061;27;20676;-72
2021/11/21 09:54:57;;;;;;;22.70;12.05;;;;;;;10.35;76.33;95057.78;5104788;27;20092;-72
2021/11/21 09:57:24;;;;;;;22.35;12.45;;;;;;;10.65;75.10;95049.91;5102051;27;20043;-73
2021/11/21 10:00:02;;;;;;;19.40;11.60;;;;;;;11.11;73.27;95044.91;5086797;28;20066;-73
2021/11/21 10:02:38;;;;;;;12.90;8.48;;;;;;;11.55;70.10;95028.84;5103459;27;20040;-72
2021/11/21 10:05:16;;;;;;;17.55;10.20;;;;;;;12.29;67.88;95034.09;5105575;28;20101;-73
2021/11/21 10:07:43;;;;;;;19.88;10.25;;;;;;;12.82;64.95;95017.16;5108430;28;20043;-73
2021/11/21 10:10:17;;;;;;;17.35;10.45;;;;;;;13.19;61.22;95024.44;5087122;28;20043;-73
2021/11/21 10:12:44;;;;;;;21.73;10.85;;;;;;;13.42;60.81;95017.44;5087869;28;20392;-73
2021/11/21 10:15:17;;;;;;;15.23;9.25;;;;;;;13.11;60.91;95017.03;5106004;28;20071;-73
2021/11/21 10:17:54;;;;;;;13.65;8.93;;;;;;;13.24;59.76;95007.25;5106232;28;20122;-73
2021/11/21 10:20:28;;;;;;;15.13;9.45;;;;;;;13.53;59.51;95013.88;5107938;28;20416;-73
2021/11/21 10:23:00;;;;;;;15.88;9.35;;;;;;;14.06;57.66;95005.50;5088564;28;20027;-73
2021/11/21 10:25:37;;;;;;;15.18;8.75;;;;;;;14.57;56.31;94992.03;5115394;28;20035;-71
2021/11/21 10:28:15;;;;;;;14.55;8.73;;;;;;;15.22;53.32;94993.50;5104488;28;20056;-72
2021/11/21 10:30:57;;;;;;;16.65;8.77;;;;;;;15.40;52.10;94989.63;5102279;28;20531;-72
2021/11/21 10:33:27;;;;;;;22.67;10.05;;;;;;;15.66;51.22;94993.16;5104614;28;20040;-72
2021/11/21 10:36:17;;;;;;;17.60;9.70;;;;;;;15.88;50.62;94991.38;5102985;28;20047;-72
2021/11/21 10:38:58;;;;;;;16.42;9.38;;;;;;;16.13;49.10;94986.16;5085124;28;20114;-72
2021/11/21 10:41:34;;;;;;;13.48;8.35;;;;;;;16.76;48.27;94972.72;5109477;28;20043;-73
2021/11/21 10:44:03;;;;;;;13.43;8.82;;;;;;;16.92;46.54;94965.59;5083286;28;20043;-73
2021/11/21 10:46:41;;;;;;;14.10;8.35;;;;;;;17.12;44.96;94970.00;5103535;28;20040;-74
2021/11/21 10:49:25;;;;;;;12.13;7.55;;;;;;;17.07;46.30;94961.34;5101268;28;20425;-74
2021/11/21 10:51:58;;;;;;;13.98;8.85;;;;;;;17.23;45.15;94960.25;5105936;28;20042;-74
2021/11/21 10:54:32;;;;;;;14.27;9.35;;;;;;;17.50;45.41;94945.91;5083431;28;20148;-74
2021/11/21 10:57:01;;;;;;;;;;;;;;;17.72;44.13;94946.31;5105617;28;20039;-73
2021/11/21 10:59:51;;;;;;;13.30;7.85;;;;;;;17.53;44.65;94948.00;5088809;28;19939;-73
2021/11/21 11:02:20;;;;;;;13.52;9.00;;;;;;;18.11;42.89;94942.94;5106968;28;20032;-74
2021/11/21 11:05:11;;;;;;;17.83;11.20;;;;;;;18.09;42.84;94939.75;5110085;28;20053;-73
2021/11/21 11:07:47;;;;;;;12.65;8.20;;;;;;;18.27;42.09;94940.16;5098035;28;20055;-74
2021/11/21 11:10:17;;;;;;;12.57;8.63;;;;;;;18.30;41.48;94929.84;5100995;28;20048;-74
2021/11/21 11:12:47;;;;;;;12.23;7.57;;;;;;;18.10;42.50;94919.50;5102231;28;20550;-73
2021/11/21 11:15:15;;;;;;;10.85;7.10;;;;;;;18.24;42.37;94920.44;5106823;28;20044;-73
2021/11/21 11:17:42;;;;;;;12.93;8.98;;;;;;;18.48;42.16;94912.56;5102206;27;20044;-73
2021/11/21 11:20:14;;;;;;;13.38;8.40;;;;;;;18.79;41.01;94914.88;5110300;27;20039;-74
2021/11/21 11:22:42;;;;;;;12.35;8.15;;;;;;;19.10;40.18;94909.28;5105322;27;20047;-73
2021/11/21 11:25:14;;;;;;;15.27;9.80;;;;;;;19.08;40.20;94916.72;5111087;27;20047;-74